sensor_id;sensor_type;location;lat;lon;timestamp;P1;durP1;ratioP1;P2;durP2;ratioP2
36253;SDS011;22291;52.250;21.228;2022-08-30T00:00:20;8.18;;;7.22;;
36253;SDS011;22291;52.250;21.228;2022-08-30T00:03:06;9.03;;;7.35;;
36253;SDS011;22291;52.250;21.228;2022-08-30T00:05:37;9.58;;;7.03;;
36253;SDS011;22291;52.250;21.228;2022-08-30T00:08:05;10.80;;;7.70;;
36253;SDS011;22291;52.250;21.228;2022-08-30T00:10:32;9.53;;;7.53;;
36253;SDS011;22291;52.250;21.228;2022-08-30T00:12:59;12.18;;;7.37;;
36253;SDS011;22291;52.250;21.228;2022-08-30T00:15:26;9.35;;;7.53;;
36253;SDS011;22291;52.250;21.228;2022-08-30T00:17:54;8.98;;;7.40;;
36253;SDS011;22291;52.250;21.228;2022-08-30T00:20:23;12.43;;;8.08;;
36253;SDS011;22291;52.250;21.228;2022-08-30T00:22:52;8.10;;;6.97;;
36253;SDS011;22291;52.250;21.228;2022-08-30T00:25:18;13.65;;;7.35;;
36253;SDS011;22291;52.250;21.228;2022-08-30T00:27:45;10.35;;;7.62;;
36253;SDS011;22291;52.250;21.228;2022-08-30T00:30:13;10.45;;;7.53;;
36253;SDS011;22291;52.250;21.228;2022-08-30T00:32:42;9.73;;;7.50;;
36253;SDS011;22291;52.250;21.228;2022-08-30T00:35:09;10.75;;;8.28;;
36253;SDS011;22291;52.250;21.228;2022-08-30T00:37:39;12.45;;;8.90;;
36253;SDS011;22291;52.250;21.228;2022-08-30T00:40:08;10.13;;;8.23;;
36253;SDS011;22291;52.250;21.228;2022-08-30T00:45:12;13.50;;;8.68;;
36253;SDS011;22291;52.250;21.228;2022-08-30T00:47:48;11.78;;;8.10;;
36253;SDS011;22291;52.250;21.228;2022-08-30T00:50:16;11.78;;;8.90;;
36253;SDS011;22291;52.250;21.228;2022-08-30T00:52:47;11.20;;;8.30;;
36253;SDS011;22291;52.250;21.228;2022-08-30T00:55:16;12.33;;;9.10;;
36253;SDS011;22291;52.250;21.228;2022-08-30T00:57:44;11.50;;;8.98;;
36253;SDS011;22291;52.250;21.228;2022-08-30T01:00:12;10.82;;;8.65;;
36253;SDS011;22291;52.250;21.228;2022-08-30T01:02:40;13.22;;;8.78;;
36253;SDS011;22291;52.250;21.228;2022-08-30T01:05:08;14.93;;;8.63;;
36253;SDS011;22291;52.250;21.228;2022-08-30T01:10:05;10.93;;;9.70;;
36253;SDS011;22291;52.250;21.228;2022-08-30T01:12:35;15.75;;;10.53;;
36253;SDS011;22291;52.250;21.228;2022-08-30T01:15:04;10.75;;;8.20;;
36253;SDS011;22291;52.250;21.228;2022-08-30T01:17:32;12.90;;;9.10;;
36253;SDS011;22291;52.250;21.228;2022-08-30T01:19:59;16.05;;;9.55;;
36253;SDS011;22291;52.250;21.228;2022-08-30T01:22:41;12.28;;;8.90;;
36253;SDS011;22291;52.250;21.228;2022-08-30T01:27:49;12.05;;;8.10;;
36253;SDS011;22291;52.250;21.228;2022-08-30T01:30:23;13.78;;;8.73;;
36253;SDS011;22291;52.250;21.228;2022-08-30T01:32:54;15.20;;;9.20;;
36253;SDS011;22291;52.250;21.228;2022-08-30T01:35:24;12.93;;;8.80;;
36253;SDS011;22291;52.250;21.228;2022-08-30T01:37:51;12.23;;;8.68;;
36253;SDS011;22291;52.250;21.228;2022-08-30T01:40:18;11.83;;;8.70;;
36253;SDS011;22291;52.250;21.228;2022-08-30T01:42:45;16.75;;;9.28;;
36253;SDS011;22291;52.250;21.228;2022-08-30T01:45:12;14.28;;;8.98;;
36253;SDS011;22291;52.250;21.228;2022-08-30T01:47:38;10.55;;;9.38;;
36253;SDS011;22291;52.250;21.228;2022-08-30T01:50:07;12.75;;;8.88;;
36253;SDS011;22291;52.250;21.228;2022-08-30T01:52:35;9.50;;;8.48;;
36253;SDS011;22291;52.250;21.228;2022-08-30T01:55:02;14.80;;;9.58;;
36253;SDS011;22291;52.250;21.228;2022-08-30T01:57:31;12.05;;;8.53;;
36253;SDS011;22291;52.250;21.228;2022-08-30T01:59:57;11.12;;;9.10;;
36253;SDS011;22291;52.250;21.228;2022-08-30T02:02:24;15.15;;;8.80;;
36253;SDS011;22291;52.250;21.228;2022-08-30T02:04:55;13.22;;;8.38;;
36253;SDS011;22291;52.250;21.228;2022-08-30T02:07:22;8.88;;;7.92;;
36253;SDS011;22291;52.250;21.228;2022-08-30T02:09:50;14.03;;;9.05;;
36253;SDS011;22291;52.250;21.228;2022-08-30T02:12:17;11.15;;;8.58;;
36253;SDS011;22291;52.250;21.228;2022-08-30T02:14:44;14.50;;;8.60;;
36253;SDS011;22291;52.250;21.228;2022-08-30T02:17:10;11.80;;;8.88;;
36253;SDS011;22291;52.250;21.228;2022-08-30T02:19:39;10.60;;;8.20;;
36253;SDS011;22291;52.250;21.228;2022-08-30T02:22:06;13.03;;;8.63;;
36253;SDS011;22291;52.250;21.228;2022-08-30T02:24:33;13.03;;;8.40;;
36253;SDS011;22291;52.250;21.228;2022-08-30T02:27:00;11.73;;;8.48;;
36253;SDS011;22291;52.250;21.228;2022-08-30T02:29:26;11.30;;;9.05;;
36253;SDS011;22291;52.250;21.228;2022-08-30T02:31:54;11.43;;;10.20;;
36253;SDS011;22291;52.250;21.228;2022-08-30T02:34:20;10.85;;;9.08;;
36253;SDS011;22291;52.250;21.228;2022-08-30T02:36:46;14.68;;;9.30;;
36253;SDS011;22291;52.250;21.228;2022-08-30T02:39:13;11.68;;;9.10;;
36253;SDS011;22291;52.250;21.228;2022-08-30T02:41:40;13.30;;;8.50;;
36253;SDS011;22291;52.250;21.228;2022-08-30T02:44:07;12.50;;;9.83;;
36253;SDS011;22291;52.250;21.228;2022-08-30T02:46:35;12.50;;;8.83;;
36253;SDS011;22291;52.250;21.228;2022-08-30T02:49:03;15.05;;;9.00;;
36253;SDS011;22291;52.250;21.228;2022-08-30T02:51:30;13.18;;;9.53;;
36253;SDS011;22291;52.250;21.228;2022-08-30T02:53:56;13.58;;;8.78;;
36253;SDS011;22291;52.250;21.228;2022-08-30T02:56:22;12.95;;;9.33;;
36253;SDS011;22291;52.250;21.228;2022-08-30T02:58:49;12.73;;;9.25;;
36253;SDS011;22291;52.250;21.228;2022-08-30T03:01:15;18.02;;;9.18;;
36253;SDS011;22291;52.250;21.228;2022-08-30T03:03:43;12.65;;;9.55;;
36253;SDS011;22291;52.250;21.228;2022-08-30T03:06:11;11.08;;;9.63;;
36253;SDS011;22291;52.250;21.228;2022-08-30T03:08:39;15.43;;;9.53;;
36253;SDS011;22291;52.250;21.228;2022-08-30T03:11:06;20.57;;;9.75;;
36253;SDS011;22291;52.250;21.228;2022-08-30T03:13:32;13.35;;;9.08;;
36253;SDS011;22291;52.250;21.228;2022-08-30T03:15:59;15.43;;;9.28;;
36253;SDS011;22291;52.250;21.228;2022-08-30T03:18:25;14.20;;;10.48;;
36253;SDS011;22291;52.250;21.228;2022-08-30T03:20:51;13.05;;;10.10;;
36253;SDS011;22291;52.250;21.228;2022-08-30T03:23:18;15.43;;;9.40;;
36253;SDS011;22291;52.250;21.228;2022-08-30T03:25:44;14.18;;;9.80;;
36253;SDS011;22291;52.250;21.228;2022-08-30T03:28:10;13.93;;;10.10;;
36253;SDS011;22291;52.250;21.228;2022-08-30T03:30:37;11.28;;;9.33;;
36253;SDS011;22291;52.250;21.228;2022-08-30T03:33:03;12.20;;;9.73;;
36253;SDS011;22291;52.250;21.228;2022-08-30T03:35:29;15.43;;;10.40;;
36253;SDS011;22291;52.250;21.228;2022-08-30T03:37:56;12.85;;;9.45;;
36253;SDS011;22291;52.250;21.228;2022-08-30T03:40:23;10.82;;;8.38;;
36253;SDS011;22291;52.250;21.228;2022-08-30T03:42:50;15.53;;;10.10;;
36253;SDS011;22291;52.250;21.228;2022-08-30T03:45:16;13.55;;;9.73;;
36253;SDS011;22291;52.250;21.228;2022-08-30T03:47:44;13.28;;;9.15;;
36253;SDS011;22291;52.250;21.228;2022-08-30T03:50:12;12.33;;;10.05;;
36253;SDS011;22291;52.250;21.228;2022-08-30T03:52:40;13.28;;;10.28;;
36253;SDS011;22291;52.250;21.228;2022-08-30T03:55:07;15.00;;;9.75;;
36253;SDS011;22291;52.250;21.228;2022-08-30T03:57:33;14.10;;;9.83;;
36253;SDS011;22291;52.250;21.228;2022-08-30T03:59:59;10.48;;;8.90;;
36253;SDS011;22291;52.250;21.228;2022-08-30T04:02:26;11.22;;;9.08;;
36253;SDS011;22291;52.250;21.228;2022-08-30T04:04:52;14.63;;;9.55;;
36253;SDS011;22291;52.250;21.228;2022-08-30T04:07:18;12.18;;;9.30;;
36253;SDS011;22291;52.250;21.228;2022-08-30T04:09:45;14.05;;;9.98;;
36253;SDS011;22291;52.250;21.228;2022-08-30T04:12:12;14.85;;;9.70;;
36253;SDS011;22291;52.250;21.228;2022-08-30T04:14:38;14.78;;;10.20;;
36253;SDS011;22291;52.250;21.228;2022-08-30T04:17:04;12.65;;;9.85;;
36253;SDS011;22291;52.250;21.228;2022-08-30T04:19:31;16.80;;;9.83;;
36253;SDS011;22291;52.250;21.228;2022-08-30T04:21:57;14.98;;;10.03;;
36253;SDS011;22291;52.250;21.228;2022-08-30T04:24:23;16.27;;;10.40;;
36253;SDS011;22291;52.250;21.228;2022-08-30T04:26:50;12.98;;;10.15;;
36253;SDS011;22291;52.250;21.228;2022-08-30T04:29:16;15.75;;;10.72;;
36253;SDS011;22291;52.250;21.228;2022-08-30T04:31:43;14.87;;;10.58;;
36253;SDS011;22291;52.250;21.228;2022-08-30T04:34:10;13.43;;;9.90;;
36253;SDS011;22291;52.250;21.228;2022-08-30T04:36:38;13.88;;;10.85;;
36253;SDS011;22291;52.250;21.228;2022-08-30T04:39:04;15.63;;;11.03;;
36253;SDS011;22291;52.250;21.228;2022-08-30T04:41:31;14.85;;;11.00;;
36253;SDS011;22291;52.250;21.228;2022-08-30T04:44:00;14.28;;;11.33;;
36253;SDS011;22291;52.250;21.228;2022-08-30T04:46:28;20.08;;;10.50;;
36253;SDS011;22291;52.250;21.228;2022-08-30T04:48:55;16.07;;;10.63;;
36253;SDS011;22291;52.250;21.228;2022-08-30T04:51:21;13.98;;;11.53;;
36253;SDS011;22291;52.250;21.228;2022-08-30T04:53:47;15.13;;;10.00;;
36253;SDS011;22291;52.250;21.228;2022-08-30T04:56:15;13.20;;;10.35;;
36253;SDS011;22291;52.250;21.228;2022-08-30T04:58:47;14.98;;;10.20;;
36253;SDS011;22291;52.250;21.228;2022-08-30T05:01:25;16.12;;;10.50;;
36253;SDS011;22291;52.250;21.228;2022-08-30T05:03:51;13.95;;;10.05;;
36253;SDS011;22291;52.250;21.228;2022-08-30T05:06:20;14.18;;;9.70;;
36253;SDS011;22291;52.250;21.228;2022-08-30T05:11:15;12.13;;;9.63;;
36253;SDS011;22291;52.250;21.228;2022-08-30T05:13:43;13.20;;;9.80;;
36253;SDS011;22291;52.250;21.228;2022-08-30T05:16:11;12.53;;;9.43;;
36253;SDS011;22291;52.250;21.228;2022-08-30T05:18:45;11.48;;;8.68;;
36253;SDS011;22291;52.250;21.228;2022-08-30T05:21:16;12.28;;;9.68;;
36253;SDS011;22291;52.250;21.228;2022-08-30T05:23:46;11.45;;;9.35;;
36253;SDS011;22291;52.250;21.228;2022-08-30T05:26:21;11.20;;;8.23;;
36253;SDS011;22291;52.250;21.228;2022-08-30T05:28:51;10.50;;;7.92;;
36253;SDS011;22291;52.250;21.228;2022-08-30T05:33:55;13.20;;;8.88;;
36253;SDS011;22291;52.250;21.228;2022-08-30T05:36:23;13.03;;;7.62;;
36253;SDS011;22291;52.250;21.228;2022-08-30T05:38:52;8.23;;;7.08;;
36253;SDS011;22291;52.250;21.228;2022-08-30T05:41:20;10.98;;;7.70;;
36253;SDS011;22291;52.250;21.228;2022-08-30T05:43:51;12.03;;;6.92;;
36253;SDS011;22291;52.250;21.228;2022-08-30T05:46:18;9.93;;;7.05;;
36253;SDS011;22291;52.250;21.228;2022-08-30T05:48:46;13.03;;;6.85;;
36253;SDS011;22291;52.250;21.228;2022-08-30T05:51:18;9.95;;;6.67;;
36253;SDS011;22291;52.250;21.228;2022-08-30T05:53:47;7.35;;;6.00;;
36253;SDS011;22291;52.250;21.228;2022-08-30T05:56:17;7.58;;;6.00;;
36253;SDS011;22291;52.250;21.228;2022-08-30T05:58:48;7.47;;;6.00;;
36253;SDS011;22291;52.250;21.228;2022-08-30T06:01:33;11.08;;;6.22;;
36253;SDS011;22291;52.250;21.228;2022-08-30T06:04:07;9.93;;;5.30;;
36253;SDS011;22291;52.250;21.228;2022-08-30T06:06:35;8.25;;;5.03;;
36253;SDS011;22291;52.250;21.228;2022-08-30T06:09:05;8.75;;;5.25;;
36253;SDS011;22291;52.250;21.228;2022-08-30T06:11:34;12.60;;;5.05;;
36253;SDS011;22291;52.250;21.228;2022-08-30T06:14:01;8.48;;;5.30;;
36253;SDS011;22291;52.250;21.228;2022-08-30T06:16:28;9.45;;;5.25;;
36253;SDS011;22291;52.250;21.228;2022-08-30T06:18:55;7.70;;;4.58;;
36253;SDS011;22291;52.250;21.228;2022-08-30T06:21:27;9.03;;;4.55;;
36253;SDS011;22291;52.250;21.228;2022-08-30T06:23:56;6.90;;;4.17;;
36253;SDS011;22291;52.250;21.228;2022-08-30T06:26:23;15.60;;;9.95;;
36253;SDS011;22291;52.250;21.228;2022-08-30T06:28:51;6.83;;;4.12;;
36253;SDS011;22291;52.250;21.228;2022-08-30T06:31:19;7.40;;;3.60;;
36253;SDS011;22291;52.250;21.228;2022-08-30T06:33:47;4.67;;;3.50;;
36253;SDS011;22291;52.250;21.228;2022-08-30T06:36:16;7.67;;;3.40;;
36253;SDS011;22291;52.250;21.228;2022-08-30T06:38:48;6.80;;;3.10;;
36253;SDS011;22291;52.250;21.228;2022-08-30T06:41:20;5.50;;;3.00;;
36253;SDS011;22291;52.250;21.228;2022-08-30T06:43:49;6.30;;;3.42;;
36253;SDS011;22291;52.250;21.228;2022-08-30T06:46:17;5.17;;;3.35;;
36253;SDS011;22291;52.250;21.228;2022-08-30T06:48:53;6.03;;;3.25;;
36253;SDS011;22291;52.250;21.228;2022-08-30T06:51:22;7.80;;;3.57;;
36253;SDS011;22291;52.250;21.228;2022-08-30T06:53:56;5.67;;;3.05;;
36253;SDS011;22291;52.250;21.228;2022-08-30T06:56:23;5.45;;;3.12;;
36253;SDS011;22291;52.250;21.228;2022-08-30T06:58:50;2.98;;;2.60;;
36253;SDS011;22291;52.250;21.228;2022-08-30T07:01:18;5.65;;;2.55;;
36253;SDS011;22291;52.250;21.228;2022-08-30T07:03:49;4.12;;;2.40;;
36253;SDS011;22291;52.250;21.228;2022-08-30T07:06:16;3.92;;;1.92;;
36253;SDS011;22291;52.250;21.228;2022-08-30T07:08:43;3.42;;;2.17;;
36253;SDS011;22291;52.250;21.228;2022-08-30T07:11:12;3.30;;;2.62;;
36253;SDS011;22291;52.250;21.228;2022-08-30T07:13:38;3.10;;;2.55;;
36253;SDS011;22291;52.250;21.228;2022-08-30T07:16:12;3.83;;;2.40;;
36253;SDS011;22291;52.250;21.228;2022-08-30T07:18:38;4.40;;;2.30;;
36253;SDS011;22291;52.250;21.228;2022-08-30T07:21:17;4.28;;;2.55;;
36253;SDS011;22291;52.250;21.228;2022-08-30T07:23:53;2.40;;;2.20;;
36253;SDS011;22291;52.250;21.228;2022-08-30T07:26:27;3.92;;;2.50;;
36253;SDS011;22291;52.250;21.228;2022-08-30T07:28:59;5.70;;;3.80;;
36253;SDS011;22291;52.250;21.228;2022-08-30T07:31:28;6.85;;;3.15;;
36253;SDS011;22291;52.250;21.228;2022-08-30T07:33:55;4.40;;;2.98;;
36253;SDS011;22291;52.250;21.228;2022-08-30T07:36:22;4.00;;;2.25;;
36253;SDS011;22291;52.250;21.228;2022-08-30T07:38:49;3.02;;;2.40;;
36253;SDS011;22291;52.250;21.228;2022-08-30T07:41:22;4.25;;;2.37;;
36253;SDS011;22291;52.250;21.228;2022-08-30T07:43:54;4.75;;;2.20;;
36253;SDS011;22291;52.250;21.228;2022-08-30T07:46:22;3.08;;;2.17;;
36253;SDS011;22291;52.250;21.228;2022-08-30T07:48:49;3.20;;;2.15;;
36253;SDS011;22291;52.250;21.228;2022-08-30T07:51:18;3.55;;;2.00;;
36253;SDS011;22291;52.250;21.228;2022-08-30T07:53:47;5.87;;;2.62;;
36253;SDS011;22291;52.250;21.228;2022-08-30T07:56:14;2.83;;;2.40;;
36253;SDS011;22291;52.250;21.228;2022-08-30T07:58:41;6.37;;;1.90;;
36253;SDS011;22291;52.250;21.228;2022-08-30T08:01:08;5.70;;;2.50;;
36253;SDS011;22291;52.250;21.228;2022-08-30T08:03:37;6.90;;;3.02;;
36253;SDS011;22291;52.250;21.228;2022-08-30T08:06:05;5.87;;;3.02;;
36253;SDS011;22291;52.250;21.228;2022-08-30T08:08:34;6.62;;;3.27;;
36253;SDS011;22291;52.250;21.228;2022-08-30T08:11:06;5.17;;;3.20;;
36253;SDS011;22291;52.250;21.228;2022-08-30T08:13:35;8.73;;;3.50;;
36253;SDS011;22291;52.250;21.228;2022-08-30T08:16:02;4.47;;;3.62;;
36253;SDS011;22291;52.250;21.228;2022-08-30T08:18:28;4.22;;;3.17;;
36253;SDS011;22291;52.250;21.228;2022-08-30T08:20:56;8.78;;;3.30;;
36253;SDS011;22291;52.250;21.228;2022-08-30T08:23:24;3.47;;;2.72;;
36253;SDS011;22291;52.250;21.228;2022-08-30T08:25:50;5.78;;;3.58;;
36253;SDS011;22291;52.250;21.228;2022-08-30T08:28:17;6.22;;;4.30;;
36253;SDS011;22291;52.250;21.228;2022-08-30T08:30:43;5.78;;;3.75;;
36253;SDS011;22291;52.250;21.228;2022-08-30T08:33:10;3.40;;;3.10;;
36253;SDS011;22291;52.250;21.228;2022-08-30T08:35:39;4.53;;;2.87;;
36253;SDS011;22291;52.250;21.228;2022-08-30T08:38:05;4.05;;;3.37;;
36253;SDS011;22291;52.250;21.228;2022-08-30T08:40:34;4.55;;;2.33;;
36253;SDS011;22291;52.250;21.228;2022-08-30T08:43:04;4.17;;;2.17;;
36253;SDS011;22291;52.250;21.228;2022-08-30T08:45:50;5.20;;;2.60;;
36253;SDS011;22291;52.250;21.228;2022-08-30T08:51:01;3.55;;;1.72;;
36253;SDS011;22291;52.250;21.228;2022-08-30T08:53:49;6.17;;;2.37;;
36253;SDS011;22291;52.250;21.228;2022-08-30T08:56:19;4.12;;;1.50;;
36253;SDS011;22291;52.250;21.228;2022-08-30T08:58:55;3.42;;;1.62;;
36253;SDS011;22291;52.250;21.228;2022-08-30T09:01:21;6.58;;;1.75;;
36253;SDS011;22291;52.250;21.228;2022-08-30T09:03:52;2.30;;;1.57;;
36253;SDS011;22291;52.250;21.228;2022-08-30T09:08:57;3.83;;;2.35;;
36253;SDS011;22291;52.250;21.228;2022-08-30T09:11:29;5.95;;;1.87;;
36253;SDS011;22291;52.250;21.228;2022-08-30T09:13:54;2.47;;;1.82;;
36253;SDS011;22291;52.250;21.228;2022-08-30T09:19:32;2.95;;;1.47;;
36253;SDS011;22291;52.250;21.228;2022-08-30T09:25:06;2.37;;;1.35;;
36253;SDS011;22291;52.250;21.228;2022-08-30T09:27:46;6.72;;;3.47;;
36253;SDS011;22291;52.250;21.228;2022-08-30T09:30:16;4.62;;;1.52;;
36253;SDS011;22291;52.250;21.228;2022-08-30T09:32:53;2.08;;;1.40;;
36253;SDS011;22291;52.250;21.228;2022-08-30T09:43:31;3.42;;;1.62;;
36253;SDS011;22291;52.250;21.228;2022-08-30T09:59:55;2.47;;;1.40;;
36253;SDS011;22291;52.250;21.228;2022-08-30T10:10:42;2.30;;;1.20;;
36253;SDS011;22291;52.250;21.228;2022-08-30T10:16:11;3.83;;;1.17;;
36253;SDS011;22291;52.250;21.228;2022-08-30T10:21:38;4.60;;;1.20;;
36253;SDS011;22291;52.250;21.228;2022-08-30T10:24:15;3.95;;;1.20;;
36253;SDS011;22291;52.250;21.228;2022-08-30T10:26:51;2.98;;;1.17;;
36253;SDS011;22291;52.250;21.228;2022-08-30T10:29:23;1.45;;;1.00;;
36253;SDS011;22291;52.250;21.228;2022-08-30T10:31:59;2.10;;;1.20;;
36253;SDS011;22291;52.250;21.228;2022-08-30T10:34:36;2.42;;;1.10;;
36253;SDS011;22291;52.250;21.228;2022-08-30T10:37:25;2.60;;;1.20;;
36253;SDS011;22291;52.250;21.228;2022-08-30T10:39:58;2.40;;;1.00;;
36253;SDS011;22291;52.250;21.228;2022-08-30T10:42:31;3.83;;;1.20;;
36253;SDS011;22291;52.250;21.228;2022-08-30T10:45:04;5.70;;;1.10;;
36253;SDS011;22291;52.250;21.228;2022-08-30T10:47:36;3.95;;;2.50;;
36253;SDS011;22291;52.250;21.228;2022-08-30T10:50:16;2.05;;;1.10;;
36253;SDS011;22291;52.250;21.228;2022-08-30T10:52:55;1.22;;;1.00;;
36253;SDS011;22291;52.250;21.228;2022-08-30T10:55:35;1.65;;;1.10;;
36253;SDS011;22291;52.250;21.228;2022-08-30T10:58:07;2.35;;;1.10;;
36253;SDS011;22291;52.250;21.228;2022-08-30T11:13:09;1.90;;;1.30;;
36253;SDS011;22291;52.250;21.228;2022-08-30T11:15:57;2.60;;;1.27;;
36253;SDS011;22291;52.250;21.228;2022-08-30T11:18:33;1.00;;;1.00;;
36253;SDS011;22291;52.250;21.228;2022-08-30T11:21:40;2.62;;;1.30;;
36253;SDS011;22291;52.250;21.228;2022-08-30T11:24:03;3.58;;;1.47;;
36253;SDS011;22291;52.250;21.228;2022-08-30T11:32:17;2.87;;;1.10;;
36253;SDS011;22291;52.250;21.228;2022-08-30T11:37:44;3.67;;;1.52;;
36253;SDS011;22291;52.250;21.228;2022-08-30T11:42:53;2.30;;;1.00;;
36253;SDS011;22291;52.250;21.228;2022-08-30T12:38:21;3.67;;;2.00;;
36253;SDS011;22291;52.250;21.228;2022-08-30T12:41:24;3.25;;;0.98;;
36253;SDS011;22291;52.250;21.228;2022-08-30T12:51:43;3.20;;;0.90;;
36253;SDS011;22291;52.250;21.228;2022-08-30T13:45:40;1.25;;;0.70;;
36253;SDS011;22291;52.250;21.228;2022-08-30T14:01:33;1.12;;;0.85;;
36253;SDS011;22291;52.250;21.228;2022-08-30T14:18:39;5.28;;;1.32;;
36253;SDS011;22291;52.250;21.228;2022-08-30T14:21:05;4.65;;;1.30;;
36253;SDS011;22291;52.250;21.228;2022-08-30T14:23:31;3.70;;;1.35;;
36253;SDS011;22291;52.250;21.228;2022-08-30T14:25:57;2.65;;;1.20;;
36253;SDS011;22291;52.250;21.228;2022-08-30T14:28:26;1.87;;;1.15;;
36253;SDS011;22291;52.250;21.228;2022-08-30T14:30:55;3.08;;;1.30;;
36253;SDS011;22291;52.250;21.228;2022-08-30T14:33:21;3.00;;;1.77;;
36253;SDS011;22291;52.250;21.228;2022-08-30T14:35:48;2.12;;;1.00;;
36253;SDS011;22291;52.250;21.228;2022-08-30T14:38:14;0.80;;;0.80;;
36253;SDS011;22291;52.250;21.228;2022-08-30T14:40:40;2.67;;;0.93;;
36253;SDS011;22291;52.250;21.228;2022-08-30T14:43:06;0.82;;;0.78;;
36253;SDS011;22291;52.250;21.228;2022-08-30T14:45:36;1.57;;;0.82;;
36253;SDS011;22291;52.250;21.228;2022-08-30T14:48:03;2.35;;;1.45;;
36253;SDS011;22291;52.250;21.228;2022-08-30T14:50:32;1.75;;;0.98;;
36253;SDS011;22291;52.250;21.228;2022-08-30T14:52:58;1.20;;;0.75;;
36253;SDS011;22291;52.250;21.228;2022-08-30T14:55:24;0.78;;;0.60;;
36253;SDS011;22291;52.250;21.228;2022-08-30T14:57:52;2.77;;;0.88;;
36253;SDS011;22291;52.250;21.228;2022-08-30T15:00:19;9.30;;;1.98;;
36253;SDS011;22291;52.250;21.228;2022-08-30T15:02:47;0.98;;;0.50;;
36253;SDS011;22291;52.250;21.228;2022-08-30T15:05:14;2.22;;;0.70;;
36253;SDS011;22291;52.250;21.228;2022-08-30T15:07:42;4.00;;;0.85;;
36253;SDS011;22291;52.250;21.228;2022-08-30T15:10:09;2.65;;;0.98;;
36253;SDS011;22291;52.250;21.228;2022-08-30T15:12:38;2.10;;;0.80;;
36253;SDS011;22291;52.250;21.228;2022-08-30T15:15:06;1.72;;;0.62;;
36253;SDS011;22291;52.250;21.228;2022-08-30T15:17:35;3.42;;;0.85;;
36253;SDS011;22291;52.250;21.228;2022-08-30T15:20:04;2.62;;;0.80;;
36253;SDS011;22291;52.250;21.228;2022-08-30T15:22:32;4.15;;;1.02;;
36253;SDS011;22291;52.250;21.228;2022-08-30T15:24:58;2.37;;;1.10;;
36253;SDS011;22291;52.250;21.228;2022-08-30T15:27:28;4.37;;;0.75;;
36253;SDS011;22291;52.250;21.228;2022-08-30T15:29:54;2.80;;;1.25;;
36253;SDS011;22291;52.250;21.228;2022-08-30T15:32:20;1.35;;;0.90;;
36253;SDS011;22291;52.250;21.228;2022-08-30T15:34:47;0.53;;;0.40;;
36253;SDS011;22291;52.250;21.228;2022-08-30T15:37:13;2.02;;;1.15;;
36253;SDS011;22291;52.250;21.228;2022-08-30T15:39:41;1.07;;;0.40;;
36253;SDS011;22291;52.250;21.228;2022-08-30T15:42:07;1.70;;;0.90;;
36253;SDS011;22291;52.250;21.228;2022-08-30T15:44:34;0.50;;;0.30;;
36253;SDS011;22291;52.250;21.228;2022-08-30T15:47:00;2.92;;;1.30;;
36253;SDS011;22291;52.250;21.228;2022-08-30T15:49:27;2.55;;;1.10;;
36253;SDS011;22291;52.250;21.228;2022-08-30T15:51:54;1.35;;;0.60;;
36253;SDS011;22291;52.250;21.228;2022-08-30T15:54:27;1.07;;;0.60;;
36253;SDS011;22291;52.250;21.228;2022-08-30T15:56:54;64.20;;;57.55;;
36253;SDS011;22291;52.250;21.228;2022-08-30T15:59:22;18.42;;;14.90;;
36253;SDS011;22291;52.250;21.228;2022-08-30T16:01:49;9.58;;;7.22;;
36253;SDS011;22291;52.250;21.228;2022-08-30T16:04:15;3.58;;;1.75;;
36253;SDS011;22291;52.250;21.228;2022-08-30T16:06:42;2.35;;;0.62;;
36253;SDS011;22291;52.250;21.228;2022-08-30T16:09:09;1.90;;;0.70;;
36253;SDS011;22291;52.250;21.228;2022-08-30T16:11:36;2.35;;;0.57;;
36253;SDS011;22291;52.250;21.228;2022-08-30T16:14:03;1.25;;;0.70;;
36253;SDS011;22291;52.250;21.228;2022-08-30T16:16:32;2.20;;;0.80;;
36253;SDS011;22291;52.250;21.228;2022-08-30T16:18:59;4.65;;;1.00;;
36253;SDS011;22291;52.250;21.228;2022-08-30T16:21:28;2.42;;;1.00;;
36253;SDS011;22291;52.250;21.228;2022-08-30T16:23:58;1.05;;;0.70;;
36253;SDS011;22291;52.250;21.228;2022-08-30T16:26:27;1.07;;;0.70;;
36253;SDS011;22291;52.250;21.228;2022-08-30T16:28:55;2.08;;;0.70;;
36253;SDS011;22291;52.250;21.228;2022-08-30T16:31:23;0.95;;;0.75;;
36253;SDS011;22291;52.250;21.228;2022-08-30T16:33:50;3.72;;;1.00;;
36253;SDS011;22291;52.250;21.228;2022-08-30T16:36:17;2.98;;;0.85;;
36253;SDS011;22291;52.250;21.228;2022-08-30T16:38:45;1.45;;;1.30;;
36253;SDS011;22291;52.250;21.228;2022-08-30T16:41:12;2.85;;;0.95;;
36253;SDS011;22291;52.250;21.228;2022-08-30T16:43:40;2.00;;;1.10;;
36253;SDS011;22291;52.250;21.228;2022-08-30T16:46:08;2.65;;;0.80;;
36253;SDS011;22291;52.250;21.228;2022-08-30T16:48:38;6.78;;;3.05;;
36253;SDS011;22291;52.250;21.228;2022-08-30T16:53:36;2.50;;;1.30;;
36253;SDS011;22291;52.250;21.228;2022-08-30T16:56:03;3.25;;;1.32;;
36253;SDS011;22291;52.250;21.228;2022-08-30T16:58:36;2.60;;;1.00;;
36253;SDS011;22291;52.250;21.228;2022-08-30T17:01:03;1.95;;;1.15;;
36253;SDS011;22291;52.250;21.228;2022-08-30T17:03:30;1.75;;;1.10;;
36253;SDS011;22291;52.250;21.228;2022-08-30T17:05:57;0.95;;;0.95;;
36253;SDS011;22291;52.250;21.228;2022-08-30T17:08:23;2.15;;;1.10;;
36253;SDS011;22291;52.250;21.228;2022-08-30T17:10:50;1.80;;;1.10;;
36253;SDS011;22291;52.250;21.228;2022-08-30T17:13:16;2.90;;;1.12;;
36253;SDS011;22291;52.250;21.228;2022-08-30T17:15:43;2.33;;;1.15;;
36253;SDS011;22291;52.250;21.228;2022-08-30T17:18:14;4.05;;;1.20;;
36253;SDS011;22291;52.250;21.228;2022-08-30T17:20:40;4.17;;;1.20;;
36253;SDS011;22291;52.250;21.228;2022-08-30T17:23:08;7.05;;;1.92;;
36253;SDS011;22291;52.250;21.228;2022-08-30T17:25:35;2.02;;;1.10;;
36253;SDS011;22291;52.250;21.228;2022-08-30T17:28:03;3.27;;;1.60;;
36253;SDS011;22291;52.250;21.228;2022-08-30T17:30:30;1.92;;;1.32;;
36253;SDS011;22291;52.250;21.228;2022-08-30T17:32:57;2.90;;;1.37;;
36253;SDS011;22291;52.250;21.228;2022-08-30T17:35:24;3.90;;;1.25;;
36253;SDS011;22291;52.250;21.228;2022-08-30T17:37:50;3.65;;;2.00;;
36253;SDS011;22291;52.250;21.228;2022-08-30T17:40:17;3.75;;;1.98;;
36253;SDS011;22291;52.250;21.228;2022-08-30T17:42:44;4.87;;;1.30;;
36253;SDS011;22291;52.250;21.228;2022-08-30T17:45:12;3.77;;;1.80;;
36253;SDS011;22291;52.250;21.228;2022-08-30T17:47:41;14.87;;;8.18;;
36253;SDS011;22291;52.250;21.228;2022-08-30T17:50:08;5.25;;;3.00;;
36253;SDS011;22291;52.250;21.228;2022-08-30T17:52:36;4.30;;;1.60;;
36253;SDS011;22291;52.250;21.228;2022-08-30T17:55:04;4.08;;;2.20;;
36253;SDS011;22291;52.250;21.228;2022-08-30T17:57:32;4.90;;;2.12;;
36253;SDS011;22291;52.250;21.228;2022-08-30T18:00:02;4.65;;;1.25;;
36253;SDS011;22291;52.250;21.228;2022-08-30T18:02:33;2.58;;;1.00;;
36253;SDS011;22291;52.250;21.228;2022-08-30T18:04:59;4.97;;;1.70;;
36253;SDS011;22291;52.250;21.228;2022-08-30T18:07:25;3.08;;;1.45;;
36253;SDS011;22291;52.250;21.228;2022-08-30T18:09:52;1.35;;;1.12;;
36253;SDS011;22291;52.250;21.228;2022-08-30T18:12:18;1.47;;;0.93;;
36253;SDS011;22291;52.250;21.228;2022-08-30T18:14:44;1.07;;;0.82;;
36253;SDS011;22291;52.250;21.228;2022-08-30T18:17:17;1.75;;;0.90;;
36253;SDS011;22291;52.250;21.228;2022-08-30T18:19:43;2.17;;;1.00;;
36253;SDS011;22291;52.250;21.228;2022-08-30T18:22:10;2.12;;;0.90;;
36253;SDS011;22291;52.250;21.228;2022-08-30T18:24:37;2.92;;;1.00;;